createdAt,value
2023-02-08T00:01:10.954Z,92.80
2023-02-08T00:04:53.766Z,96.90
2023-02-08T00:08:43.413Z,93.90
2023-02-08T00:13:02.022Z,95.70
2023-02-08T00:16:51.133Z,99.20
2023-02-08T00:20:40.478Z,101.80
2023-02-08T00:24:29.747Z,101.80
2023-02-08T00:28:18.779Z,100.00
2023-02-08T00:32:07.904Z,98.90
2023-02-08T00:35:57.313Z,103.90
2023-02-08T00:39:46.463Z,95.70
2023-02-08T00:43:35.715Z,96.60
2023-02-08T00:47:25.018Z,94.40
2023-02-08T00:51:12.824Z,92.60
2023-02-08T00:55:02.091Z,91.90
2023-02-08T00:58:52.304Z,94.50
2023-02-08T01:02:43.560Z,100.50
2023-02-08T01:07:20.662Z,115.60
2023-02-08T01:11:08.615Z,123.60
2023-02-08T01:14:56.160Z,110.60
2023-02-08T01:18:43.782Z,111.10
2023-02-08T01:22:34.182Z,101.80
2023-02-08T01:26:21.992Z,103.20
2023-02-08T01:30:10.379Z,110.70
2023-02-08T01:33:58.719Z,105.70
2023-02-08T01:57:10.717Z,109.70
2023-02-08T02:00:59.738Z,104.30
2023-02-08T02:04:48.909Z,103.80
2023-02-08T02:08:39.843Z,107.00
2023-02-08T02:12:30.163Z,106.60
2023-02-08T02:16:20.078Z,104.10
2023-02-08T02:20:09.438Z,105.20
2023-02-08T02:24:08.555Z,100.70
2023-02-08T02:39:57.677Z,289.90
2023-02-08T02:44:03.470Z,117.80
2023-02-08T02:47:59.536Z,130.10
2023-02-08T02:59:31.531Z,85.10
2023-02-08T03:03:20.398Z,86.90
2023-02-08T03:07:12.278Z,86.10
2023-02-08T03:11:16.383Z,80.90
2023-02-08T03:23:03.603Z,82.40
2023-02-08T03:27:00.321Z,86.20
2023-02-08T03:30:48.305Z,86.20
2023-02-08T03:34:37.442Z,81.70
2023-02-08T03:50:39.582Z,88.00
2023-02-08T03:54:28.758Z,92.30
2023-02-08T03:58:17.672Z,88.10
2023-02-08T04:02:01.425Z,90.10
2023-02-08T04:21:47.815Z,81.10
2023-02-08T04:25:35.798Z,79.20
2023-02-08T04:33:07.380Z,69.40
2023-02-08T04:44:59.825Z,67.60
2023-02-08T04:48:48.880Z,67.50
2023-02-08T04:52:37.910Z,70.70
2023-02-08T04:56:27.058Z,66.50
2023-02-08T05:00:16.019Z,67.80
2023-02-08T05:04:05.113Z,66.50
2023-02-08T05:07:54.122Z,65.20
2023-02-08T05:11:46.696Z,66.20
2023-02-08T05:15:35.722Z,64.90
2023-02-08T05:19:25.028Z,71.50
2023-02-08T05:23:14.095Z,72.10
2023-02-08T05:54:01.736Z,64.50
2023-02-08T05:57:51.111Z,66.10
2023-02-08T06:01:40.165Z,64.50
2023-02-08T06:05:29.530Z,58.70
2023-02-08T06:09:07.441Z,61.10
2023-02-08T06:12:16.449Z,65.70
2023-02-08T06:15:51.161Z,62.60
2023-02-08T06:19:22.854Z,59.60
2023-02-08T06:22:40.606Z,65.10
2023-02-08T06:26:18.995Z,58.80
2023-02-08T06:29:48.725Z,61.50
2023-02-08T06:33:27.331Z,63.80
2023-02-08T06:36:47.436Z,64.40
2023-02-08T06:40:36.521Z,66.80
2023-02-08T06:44:08.956Z,68.10
2023-02-08T06:47:17.891Z,69.80
2023-02-08T06:50:46.587Z,69.60
2023-02-08T06:54:25.329Z,68.70
2023-02-08T06:58:14.617Z,71.80
2023-02-08T07:02:02.229Z,66.60
2023-02-08T07:05:14.401Z,65.00
2023-02-08T07:08:43.653Z,66.10
2023-02-08T07:11:25.070Z,68.90
2023-02-08T07:14:14.152Z,75.00
2023-02-08T07:16:48.678Z,61.80
2023-02-08T07:19:47.065Z,66.00
2023-02-08T07:23:07.742Z,62.70
2023-02-08T07:26:45.357Z,60.90
2023-02-08T07:30:06.677Z,62.00
2023-02-08T07:33:18.622Z,57.60
2023-02-08T07:36:50.173Z,54.90
2023-02-08T07:40:33.453Z,53.50
2023-02-08T07:43:27.186Z,52.00
2023-02-08T07:47:00.565Z,52.70
2023-02-08T07:50:08.063Z,47.70
2023-02-08T07:53:11.680Z,50.10
2023-02-08T07:56:10.500Z,43.30
2023-02-08T07:59:17.754Z,44.60
2023-02-08T08:02:51.961Z,36.00
2023-02-08T08:06:28.331Z,34.20
2023-02-08T08:10:11.011Z,31.90
2023-02-08T08:13:19.775Z,31.70
2023-02-08T08:17:08.840Z,32.40
2023-02-08T08:27:46.609Z,28.10
2023-02-08T08:38:54.971Z,33.10
2023-02-08T08:50:39.405Z,24.60
2023-02-08T08:54:28.521Z,35.10
2023-02-08T08:58:07.569Z,28.00
2023-02-08T09:01:50.643Z,27.00
2023-02-08T09:04:49.421Z,26.60
2023-02-08T09:08:28.332Z,27.60
2023-02-08T09:30:05.522Z,17.80
2023-02-08T09:33:43.512Z,18.30
2023-02-08T09:37:17.550Z,17.00
2023-02-08T09:40:48.148Z,18.20
2023-02-08T09:44:38.076Z,18.40
2023-02-08T09:59:41.555Z,17.30
2023-02-08T10:03:30.700Z,17.50
2023-02-08T10:06:55.221Z,16.80
2023-02-08T10:10:44.698Z,15.30
2023-02-08T10:29:42.976Z,25.30
2023-02-08T10:33:31.834Z,20.30
2023-02-08T10:37:16.499Z,17.20
2023-02-08T10:40:16.729Z,22.50
2023-02-08T10:43:35.470Z,22.60
2023-02-08T10:47:00.784Z,19.60
2023-02-08T10:50:52.313Z,21.00
2023-02-08T11:21:04.460Z,28.40
2023-02-08T11:24:48.555Z,19.40
2023-02-08T11:28:12.852Z,19.80
2023-02-08T11:31:41.948Z,23.30
2023-02-08T11:35:37.184Z,19.40
2023-02-08T11:39:16.017Z,20.70
2023-02-08T11:42:50.768Z,157.60
2023-02-08T11:46:32.762Z,168.70
2023-02-08T11:50:13.127Z,103.40
2023-02-08T12:16:10.906Z,16.70
2023-02-08T12:20:15.110Z,18.50
2023-02-08T12:24:08.989Z,17.80
2023-02-08T12:36:05.396Z,18.20
2023-02-08T12:40:00.709Z,20.50
2023-02-08T12:43:54.492Z,18.00
2023-02-08T12:48:07.679Z,19.40
2023-02-08T12:51:41.617Z,16.00
2023-02-08T12:55:29.530Z,16.60
2023-02-08T12:59:15.108Z,16.30
2023-02-08T13:19:05.988Z,19.40
2023-02-08T13:22:46.286Z,19.40
2023-02-08T13:25:56.870Z,21.00
2023-02-08T13:28:41.485Z,23.00
2023-02-08T13:31:27.092Z,19.80
2023-02-08T13:34:57.955Z,18.80
2023-02-08T13:38:39.443Z,20.30
2023-02-08T13:42:31.359Z,26.30
2023-02-08T13:46:12.181Z,21.00
2023-02-08T13:49:37.200Z,22.40
2023-02-08T13:53:35.390Z,20.70
2023-02-08T14:01:35.409Z,21.70
2023-02-08T14:05:09.991Z,19.50
2023-02-08T14:08:29.057Z,17.70
2023-02-08T14:11:55.691Z,23.30
2023-02-08T14:15:56.885Z,23.00
2023-02-08T14:19:56.668Z,20.50
2023-02-08T14:34:35.045Z,22.00
2023-02-08T14:38:29.712Z,20.30
2023-02-08T14:42:20.112Z,21.40
2023-02-08T14:45:35.519Z,22.40
2023-02-08T14:49:24.572Z,20.80
2023-02-08T14:53:06.101Z,24.10
2023-02-08T15:08:53.387Z,29.40
2023-02-08T15:12:28.001Z,26.40
2023-02-08T15:16:20.129Z,33.30
2023-02-08T15:20:12.190Z,33.70
2023-02-08T15:23:56.232Z,34.60
2023-02-08T15:27:49.591Z,35.20
2023-02-08T15:31:39.002Z,36.90
2023-02-08T15:35:38.455Z,35.00
2023-02-08T15:53:44.817Z,31.60
2023-02-08T15:57:19.691Z,29.00
2023-02-08T16:01:17.737Z,33.30
2023-02-08T16:04:55.982Z,39.50
2023-02-08T16:08:45.831Z,38.90
2023-02-08T16:12:16.587Z,36.80
2023-02-08T16:16:18.422Z,42.00
2023-02-08T16:31:50.977Z,103.70
2023-02-08T16:35:20.342Z,93.90
2023-02-08T16:38:57.055Z,78.80
2023-02-08T16:43:01.331Z,65.20
2023-02-08T16:46:48.390Z,53.90
2023-02-08T17:16:37.288Z,157.80
2023-02-08T17:20:24.977Z,161.00
2023-02-08T17:24:12.579Z,166.10
2023-02-08T17:36:16.289Z,138.70
2023-02-08T17:40:02.942Z,118.00
2023-02-08T17:43:50.749Z,103.50
2023-02-08T17:47:38.369Z,121.80
2023-02-08T17:51:27.132Z,128.60
2023-02-08T17:55:18.000Z,137.70
2023-02-08T18:10:50.813Z,170.30
2023-02-08T18:14:40.005Z,148.80
2023-02-08T18:18:22.260Z,188.30
2023-02-08T18:22:14.795Z,270.10
2023-02-08T18:26:03.919Z,112.20
2023-02-08T18:29:51.471Z,110.40
2023-02-08T18:33:23.238Z,141.40
2023-02-08T18:37:11.040Z,151.40
2023-02-08T18:41:00.564Z,181.90
2023-02-08T18:44:50.690Z,126.90
2023-02-08T18:48:33.155Z,111.00
2023-02-08T18:52:22.473Z,112.30
2023-02-08T18:55:53.646Z,97.10
2023-02-08T18:59:25.342Z,102.90
2023-02-08T19:02:58.664Z,100.00
2023-02-08T19:06:44.025Z,92.00
2023-02-08T19:09:49.705Z,95.50
2023-02-08T19:13:38.369Z,106.90
2023-02-08T19:17:28.016Z,99.00
2023-02-08T19:21:10.292Z,99.30
2023-02-08T19:28:49.495Z,106.80
2023-02-08T19:40:17.796Z,76.40
2023-02-08T19:44:07.353Z,85.80
2023-02-08T19:47:55.951Z,96.30
2023-02-08T19:51:45.094Z,98.60
2023-02-08T19:55:34.341Z,88.70
2023-02-08T19:59:16.681Z,91.40
2023-02-08T20:03:16.346Z,115.00
2023-02-08T20:06:56.199Z,111.10
2023-02-08T20:11:21.339Z,118.40
2023-02-08T20:15:10.386Z,122.60
2023-02-08T20:18:50.384Z,119.40
2023-02-08T20:22:18.303Z,95.10
2023-02-08T20:25:58.632Z,98.10
2023-02-08T20:29:40.862Z,100.40
2023-02-08T20:33:32.273Z,102.00
2023-02-08T20:37:08.374Z,103.00
2023-02-08T20:44:06.478Z,119.30
2023-02-08T20:47:29.950Z,111.00
2023-02-08T20:51:03.850Z,118.40
2023-02-08T20:54:15.440Z,149.40
2023-02-08T20:57:33.974Z,135.10
2023-02-08T21:01:02.930Z,120.40
2023-02-08T21:04:52.150Z,105.20
2023-02-08T21:08:27.577Z,98.90
2023-02-08T21:12:10.395Z,93.70
2023-02-08T21:42:22.642Z,82.70
2023-02-08T21:46:11.810Z,94.30
2023-02-08T21:49:59.701Z,99.30
2023-02-08T21:53:47.246Z,97.30
2023-02-08T21:57:26.184Z,97.50
2023-02-08T22:01:15.347Z,111.30
2023-02-08T22:04:57.622Z,104.30
2023-02-08T22:08:46.651Z,107.70
2023-02-08T22:12:37.118Z,98.00
2023-02-08T22:16:26.123Z,96.20
2023-02-08T22:39:17.017Z,73.80
2023-02-08T22:43:05.952Z,71.50
2023-02-08T22:46:57.832Z,66.70
2023-02-08T22:50:47.191Z,52.80
2023-02-08T22:54:29.192Z,50.60
2023-02-08T22:58:19.954Z,49.20
2023-02-08T23:02:12.993Z,60.20
2023-02-08T23:05:56.306Z,72.70
2023-02-08T23:09:45.714Z,76.80
2023-02-08T23:13:35.136Z,71.80
2023-02-08T23:20:54.952Z,102.40
2023-02-08T23:24:44.890Z,75.90
2023-02-08T23:28:33.799Z,62.00
2023-02-08T23:32:23.121Z,94.00
2023-02-08T23:36:12.332Z,64.60
2023-02-08T23:40:30.748Z,55.90
2023-02-08T23:44:19.884Z,47.10
2023-02-08T23:48:08.875Z,38.90
2023-02-08T23:51:57.839Z,37.10
2023-02-08T23:55:46.822Z,46.90
2023-02-08T23:59:35.857Z,55.50
